Forside
METAR-TAF:

METAR-TAF

Lufthavne :

Marshall County Airport

Lacon, Illinois, USA

Breddekreds: 41-01-09N, længdekreds: 089-23-11W, højde: 173 m

Aktuelle vejr

Denne rapport blev lavet for 34 minutter siden, kl. 10:55 UTC
Vind 6 kt fra østsydøst
Temperatur 2°C
Fugtighed 93%
Tryk 1023 hPa
Sigt: 8.0 km
Spredte skyer i en højde af 5500 ft
Overskyet i en højde af 6500 ft
let regn

METAR: KC75 241055Z AUTO 12006KT 5SM -RA SCT055 OVC065 02/01 A3020 RMK AO2 T00170013

Tid: 05:29 (11:29 UTC)


TAF: fraværende

Vejrobservationer og prognoser fra mere end 4000 lufthavne (METAR og TAF).

De gule og røde prikker repræsenterer de meteorologiske stationer.

Flyt musen over at se navnet på stationen.

Så klik over at se vejr observationer og prognoser.

At skifte det kort: Klik på de grønne knapper med et sort kors for at zoome ind; på den grønne knap med en bindestreg for at zoome ud; eller på de grønne pile for tilstødende kort.


METAR-TAF: